Airfield :
LOGIN :

Register | Disclaimer

   EN    FR    IT 

 










Legend :    VFR   Marginal VFR   IFR   Intensive IFR   Very Intensive IFR
Visi :
Ceiling :
>= 8 km
>= 3000ft
5 to 8 km
1000 to 3000 ft
1500m to 5 km
500 to 1000 ft
800 to 1500m
200 to 500 ft
< 800m
< 200 ft
Symbols :   Thunderstorms  Fog  Heavy snow  Heavy precipitations  Wind > 20 kt
SIGMETs :     Misc.  Thunderstorms  Icing  Turbulence  Mountain Waves  Volcanic Ashes






- Airport Elevation : 2595 ft
- IATA code : SLM


LESA - Salamanca Matacan

CURRENT METAR :
  • 110000Z AUTO 25005KT 9999 FEW047 02/M02 Q1025

EXPIRED METARs :
  • 102330Z AUTO 22006KT 9999 NCD 02/M01 Q1025
  • 102300Z AUTO VRB01KT 9999 NCD 02/01 Q1025
  • 102230Z AUTO 00000KT 9999 NCD 02/02 Q1025
  • 102200Z AUTO 24001KT 9999 NCD 02/01 Q1025
  • 102130Z AUTO 20004KT 9999 NCD 03/01 Q1026

TAF TAF LESA
Valid from the 11 at 00:00 until the 12 at 00:00 UTC


102300Z 1100/1124 VRB05KT CAVOK TX09/1115Z TN00/1106Z
TEMPO 1106/1111 3000 RA BR BKN012
PROB30
TEMPO 1110/1116 30010KT



MET'MAP, your aeronautical weather chart ! - Copyright ORBIFLY December 2007 - Disclaimer

ORBIFLY MET'MAP TEAM :

Programming & Development : Alexandra Zaïnal
Concept & original design : Baudouin d'Aumeries
Assistance for programming : Marc-Olivier Méhu
Technical & hardware support : Manuel Goepfert

Contact : metmap@orbifly.com




SOURCES & CREDITS :

   NOAA